Time;durP1;ratioP1;P1;durP2;ratioP2;P2;SDS_P1;SDS_P2;PMS_P1;PMS_P2;Temp;Humidity;BMP_temperature;BMP_pressure;BME280_temperature;BME280_humidity;BME280_pressure;Samples;Min_cycle;Max_cycle;Signal;HPM_P1;HPM_P2
2021/05/31 00:01:53;;;;;;;2.17;1.40;;;23.20;38.60;;;;;;5091630;28;20032;-61
2021/05/31 00:04:19;;;;;;;2.17;1.30;;;23.20;38.60;;;;;;5092218;28;20024;-60
2021/05/31 00:07:03;;;;;;;1.80;1.60;;;23.20;38.60;;;;;;5092570;28;20123;-60
2021/05/31 00:09:30;;;;;;;1.60;1.17;;;23.20;38.60;;;;;;5091560;28;20073;-63
2021/05/31 00:11:56;;;;;;;1.23;1.00;;;23.20;38.70;;;;;;5092720;28;20344;-61
2021/05/31 00:14:22;;;;;;;1.60;1.20;;;23.20;38.70;;;;;;5092020;28;20081;-61
2021/05/31 00:16:47;;;;;;;1.60;1.40;;;23.10;38.70;;;;;;5091492;28;20031;-61
2021/05/31 00:19:14;;;;;;;3.47;1.38;;;23.10;38.70;;;;;;5090580;28;20039;-63
2021/05/31 00:21:40;;;;;;;1.63;1.30;;;23.20;38.80;;;;;;5090897;28;20374;-63
2021/05/31 00:24:07;;;;;;;2.42;1.50;;;23.10;38.80;;;;;;5091996;28;20032;-61
2021/05/31 00:26:33;;;;;;;2.05;1.20;;;23.10;38.90;;;;;;5074843;28;20024;-61
2021/05/31 00:28:59;;;;;;;1.52;1.00;;;23.10;38.90;;;;;;5091945;28;20447;-62
2021/05/31 00:31:25;;;;;;;1.70;1.10;;;23.10;39.00;;;;;;5091962;28;20054;-62
2021/05/31 00:33:50;;;;;;;2.75;1.70;;;23.10;39.00;;;;;;5092431;28;20020;-62
2021/05/31 00:36:17;;;;;;;1.92;1.10;;;23.10;39.00;;;;;;5091401;28;20043;-63
2021/05/31 00:38:43;;;;;;;2.50;1.50;;;23.10;39.10;;;;;;5092025;28;20028;-61
2021/05/31 00:41:09;;;;;;;1.85;1.40;;;23.10;39.10;;;;;;5092521;28;20090;-61
2021/05/31 00:43:36;;;;;;;1.85;1.30;;;23.10;39.20;;;;;;5091405;28;20031;-60
2021/05/31 00:46:04;;;;;;;1.67;1.25;;;23.10;39.20;;;;;;5089457;28;20032;-60
2021/05/31 00:48:30;;;;;;;4.45;1.60;;;23.10;39.20;;;;;;5089797;28;20093;-61
2021/05/31 00:50:57;;;;;;;2.03;1.42;;;23.10;39.30;;;;;;5091526;28;20035;-62
2021/05/31 00:53:23;;;;;;;1.55;1.30;;;23.10;39.30;;;;;;5090346;28;20028;-60
2021/05/31 00:55:49;;;;;;;1.20;1.10;;;23.10;39.40;;;;;;5092073;28;20020;-60
2021/05/31 00:58:16;;;;;;;2.05;1.27;;;23.10;39.40;;;;;;5093806;28;20079;-62
2021/05/31 01:00:46;;;;;;;2.53;1.60;;;23.00;39.40;;;;;;5095224;28;20360;-58
2021/05/31 01:03:12;;;;;;;2.42;1.50;;;23.10;39.50;;;;;;5094925;28;20086;-62
2021/05/31 01:05:38;;;;;;;1.20;1.10;;;23.00;39.50;;;;;;5094906;28;20048;-62
2021/05/31 01:08:10;;;;;;;2.20;1.38;;;23.00;39.50;;;;;;5095168;28;20111;-61
2021/05/31 01:10:50;;;;;;;1.40;1.30;;;23.00;39.60;;;;;;5095298;28;20082;-61
2021/05/31 01:13:21;;;;;;;2.10;1.40;;;23.00;39.70;;;;;;5095542;28;20028;-61
2021/05/31 01:15:56;;;;;;;2.08;1.65;;;23.00;39.70;;;;;;5095385;28;20028;-62
2021/05/31 01:18:29;;;;;;;2.13;1.60;;;23.00;39.70;;;;;;5094394;28;20032;-63
2021/05/31 01:21:23;;;;;;;1.92;1.30;;;23.00;39.80;;;;;;5093238;28;20127;-59
2021/05/31 01:23:57;;;;;;;1.88;1.40;;;23.00;39.80;;;;;;5094350;28;20032;-59
2021/05/31 01:26:26;;;;;;;2.70;1.58;;;23.00;39.80;;;;;;5077982;28;20047;-60
2021/05/31 01:29:02;;;;;;;1.35;1.25;;;23.00;39.90;;;;;;5094824;28;20038;-59
2021/05/31 01:31:49;;;;;;;3.75;2.00;;;22.90;39.80;;;;;;5094771;28;20026;-59
2021/05/31 01:34:20;;;;;;;1.73;1.48;;;23.00;40.00;;;;;;5094472;28;20040;-62
2021/05/31 01:36:54;;;;;;;1.60;1.40;;;22.90;40.00;;;;;;5094202;28;20035;-59
2021/05/31 01:39:24;;;;;;;2.33;1.63;;;22.90;40.60;;;;;;5094389;28;20112;-63
2021/05/31 01:41:51;;;;;;;1.90;1.38;;;22.90;40.00;;;;;;5092535;28;20024;-60
2021/05/31 01:44:18;;;;;;;1.67;1.40;;;22.90;40.10;;;;;;5095641;28;20032;-62
2021/05/31 01:46:45;;;;;;;2.05;1.60;;;22.90;40.10;;;;;;5094748;28;20040;-62
2021/05/31 01:49:13;;;;;;;2.58;1.75;;;22.90;40.10;;;;;;5092784;28;20039;-59
2021/05/31 01:51:40;;;;;;;4.00;1.52;;;22.90;40.20;;;;;;5094991;28;20435;-61
2021/05/31 01:54:08;;;;;;;5.18;1.70;;;22.90;40.20;;;;;;5094029;28;20099;-60
2021/05/31 01:56:38;;;;;;;1.65;1.50;;;22.90;40.30;;;;;;5094377;28;20024;-60
2021/05/31 01:59:06;;;;;;;2.45;1.42;;;22.90;40.30;;;;;;5094024;28;20063;-59
2021/05/31 02:01:33;;;;;;;2.78;1.70;;;22.90;40.30;;;;;;5094968;28;20032;-63
2021/05/31 02:03:59;;;;;;;2.45;1.70;;;22.90;40.30;;;;;;5091803;28;20043;-60
2021/05/31 02:06:25;;;;;;;2.47;1.75;;;22.90;40.30;;;;;;5094964;28;20016;-61
2021/05/31 02:08:51;;;;;;;2.05;1.27;;;22.90;40.30;;;;;;5093986;28;20036;-61
2021/05/31 02:11:33;;;;;;;2.38;1.35;;;22.80;40.30;;;;;;5094520;28;20036;-59
2021/05/31 02:14:14;;;;;;;1.55;1.40;;;22.90;40.40;;;;;;5094526;28;20035;-60
2021/05/31 02:16:54;;;;;;;3.10;1.80;;;22.80;40.30;;;;;;5094242;28;20024;-61
2021/05/31 02:19:21;;;;;;;2.63;1.60;;;22.80;40.40;;;;;;5091971;28;20068;-60
2021/05/31 02:21:51;;;;;;;1.77;1.35;;;22.80;40.40;;;;;;5094093;28;20045;-61
2021/05/31 02:24:18;;;;;;;1.75;1.40;;;22.80;40.40;;;;;;5094175;28;20105;-59
2021/05/31 02:26:46;;;;;;;3.13;1.50;;;22.80;40.50;;;;;;5094254;28;20043;-60
2021/05/31 02:29:12;;;;;;;2.53;1.75;;;22.80;40.50;;;;;;5093632;28;20071;-61
2021/05/31 02:31:39;;;;;;;2.75;1.50;;;22.80;40.50;;;;;;5091640;28;20465;-62
2021/05/31 02:34:07;;;;;;;2.45;1.67;;;22.80;40.50;;;;;;5093039;28;20077;-62
2021/05/31 02:36:33;;;;;;;3.28;1.60;;;22.80;40.50;;;;;;5093378;28;20032;-62
2021/05/31 02:38:59;;;;;;;2.30;1.60;;;22.80;40.50;;;;;;5094260;28;20024;-60
2021/05/31 02:41:25;;;;;;;2.42;1.83;;;22.80;40.60;;;;;;5093457;28;20034;-61
2021/05/31 02:43:50;;;;;;;2.95;1.70;;;22.70;40.50;;;;;;5093404;28;20070;-61
2021/05/31 02:46:16;;;;;;;2.58;1.70;;;22.80;40.60;;;;;;5093262;28;20375;-61
2021/05/31 02:48:42;;;;;;;2.35;1.52;;;22.70;40.60;;;;;;5092909;28;20328;-59
2021/05/31 02:51:08;;;;;;;3.70;1.60;;;22.70;40.60;;;;;;5092895;28;20404;-60
2021/05/31 02:53:34;;;;;;;2.50;1.90;;;22.70;40.60;;;;;;5093856;28;20031;-61
2021/05/31 02:56:02;;;;;;;2.30;1.80;;;22.70;40.60;;;;;;5092634;28;20024;-61
2021/05/31 02:58:28;;;;;;;2.75;1.70;;;22.70;40.60;;;;;;5092489;28;20051;-62
2021/05/31 03:00:54;;;;;;;2.55;1.80;;;22.70;40.60;;;;;;5093380;28;20443;-58
2021/05/31 03:03:20;;;;;;;2.78;1.80;;;22.70;40.70;;;;;;5093569;28;20039;-60
2021/05/31 03:05:46;;;;;;;3.08;1.98;;;22.70;40.70;;;;;;5093385;28;20043;-61
2021/05/31 03:08:11;;;;;;;2.25;1.52;;;22.70;40.70;;;;;;5092890;28;20027;-61
2021/05/31 03:10:37;;;;;;;2.97;1.85;;;22.70;40.70;;;;;;5093039;28;20013;-60
2021/05/31 03:13:03;;;;;;;2.28;1.70;;;22.70;40.70;;;;;;5093279;28;20074;-59
2021/05/31 03:15:30;;;;;;;3.00;1.88;;;22.70;40.70;;;;;;5093791;28;20027;-60
2021/05/31 03:17:56;;;;;;;1.95;1.60;;;22.70;40.70;;;;;;5093659;28;20207;-58
2021/05/31 03:20:25;;;;;;;3.25;1.60;;;22.60;40.60;;;;;;5091816;28;20046;-60
2021/05/31 03:22:52;;;;;;;3.83;2.22;;;22.60;40.60;;;;;;5092710;28;20046;-61
2021/05/31 03:25:18;;;;;;;1.65;1.40;;;22.60;40.60;;;;;;5092003;28;20362;-60
2021/05/31 03:27:44;;;;;;;2.30;1.55;;;22.60;40.60;;;;;;5091532;28;20032;-60
2021/05/31 03:30:12;;;;;;;1.63;1.48;;;22.60;40.70;;;;;;5092929;28;20350;-60
2021/05/31 03:32:39;;;;;;;2.25;1.60;;;22.60;40.70;;;;;;5091710;28;20122;-62
2021/05/31 03:35:06;;;;;;;2.25;1.83;;;22.60;40.70;;;;;;5091921;28;20038;-59
2021/05/31 03:37:32;;;;;;;2.30;1.42;;;22.60;40.70;;;;;;5091425;28;20458;-61
2021/05/31 03:39:58;;;;;;;2.08;1.85;;;22.60;40.70;;;;;;5092365;28;20036;-60
2021/05/31 03:42:24;;;;;;;2.10;1.65;;;22.60;40.70;;;;;;5093336;28;20028;-60
2021/05/31 03:44:50;;;;;;;2.47;1.80;;;22.60;40.70;;;;;;5092193;28;20028;-59
2021/05/31 03:47:15;;;;;;;2.55;1.98;;;22.60;40.70;;;;;;5092442;28;20096;-57
2021/05/31 03:49:41;;;;;;;2.10;1.70;;;22.60;40.80;;;;;;5092212;28;20036;-60
2021/05/31 03:52:07;;;;;;;2.10;1.55;;;22.60;40.80;;;;;;5092487;28;20020;-62
2021/05/31 03:54:33;;;;;;;1.92;1.52;;;22.60;40.80;;;;;;5092531;28;20038;-60
2021/05/31 03:56:58;;;;;;;1.70;1.58;;;22.60;40.80;;;;;;5092188;28;20020;-61
2021/05/31 03:59:25;;;;;;;2.97;1.67;;;22.60;40.80;;;;;;5090139;28;20048;-59
2021/05/31 04:01:51;;;;;;;2.55;1.77;;;22.60;40.80;;;;;;5092535;28;20447;-60
2021/05/31 04:04:19;;;;;;;2.05;1.85;;;22.60;40.80;;;;;;5091667;28;20096;-60
2021/05/31 04:12:00;;;;;;;4.07;2.00;;;22.60;40.80;;;;;;5091916;28;20020;-57
2021/05/31 04:14:27;;;;;;;2.38;1.73;;;22.60;40.80;;;;;;5091350;28;20312;-59
2021/05/31 04:16:55;;;;;;;2.15;1.48;;;22.60;40.80;;;;;;5084244;28;20154;-60
2021/05/31 04:19:22;;;;;;;3.65;2.13;;;22.60;40.80;;;;;;5091498;28;20054;-60
2021/05/31 04:21:50;;;;;;;2.00;1.70;;;22.60;40.80;;;;;;5091650;28;20016;-60
2021/05/31 04:24:17;;;;;;;1.75;1.40;;;22.60;40.80;;;;;;5091793;28;20034;-61
2021/05/31 04:26:44;;;;;;;2.35;1.83;;;22.60;40.80;;;;;;5091108;28;20039;-61
2021/05/31 04:29:12;;;;;;;2.30;1.65;;;22.60;40.80;;;;;;5092141;28;20109;-60
2021/05/31 04:31:38;;;;;;;3.03;1.90;;;22.60;40.80;;;;;;5092662;28;20034;-61
2021/05/31 04:34:07;;;;;;;2.20;2.00;;;22.60;40.80;;;;;;5095790;28;20035;-59
2021/05/31 04:36:33;;;;;;;2.53;1.65;;;22.60;40.80;;;;;;5094994;28;20081;-62
2021/05/31 04:39:02;;;;;;;2.17;1.98;;;22.60;40.80;;;;;;5095433;28;20044;-60
2021/05/31 04:41:28;;;;;;;2.10;1.63;;;22.60;40.90;;;;;;5095549;28;20092;-58
2021/05/31 04:43:53;;;;;;;2.83;1.77;;;22.60;40.90;;;;;;5095543;28;20431;-60
2021/05/31 04:46:19;;;;;;;2.22;1.67;;;22.60;40.90;;;;;;5096467;28;20068;-60
2021/05/31 04:48:45;;;;;;;2.13;1.70;;;22.60;40.90;;;;;;5095612;28;20093;-61
2021/05/31 04:51:11;;;;;;;1.73;1.52;;;22.60;40.90;;;;;;5095714;28;20028;-60
2021/05/31 04:53:36;;;;;;;3.38;1.70;;;22.60;40.90;;;;;;5095526;28;20081;-60
2021/05/31 04:56:07;;;;;;;2.30;1.75;;;22.60;40.90;;;;;;5096432;28;20491;-61
2021/05/31 04:58:33;;;;;;;2.67;1.73;;;22.60;40.90;;;;;;5095484;28;20052;-60
2021/05/31 05:00:59;;;;;;;2.33;1.73;;;22.60;40.90;;;;;;5096313;28;20024;-60
2021/05/31 05:03:25;;;;;;;2.20;1.65;;;22.60;40.90;;;;;;5094984;28;20330;-61
2021/05/31 05:05:51;;;;;;;2.15;1.55;;;22.60;40.90;;;;;;5095243;28;20024;-59
2021/05/31 05:08:18;;;;;;;2.10;1.67;;;22.60;40.90;;;;;;5092783;28;20028;-62
2021/05/31 05:10:44;;;;;;;3.17;1.95;;;22.60;40.90;;;;;;5095719;28;20114;-59
2021/05/31 05:13:10;;;;;;;2.78;1.70;;;22.60;40.90;;;;;;5096549;28;20131;-59
2021/05/31 05:15:36;;;;;;;3.20;1.73;;;22.60;40.90;;;;;;5096790;28;20036;-60
2021/05/31 05:18:03;;;;;;;2.35;1.80;;;22.60;40.90;;;;;;5097462;28;20031;-59
2021/05/31 05:20:30;;;;;;;4.75;2.35;;;22.60;40.90;;;;;;5095863;28;20063;-61
2021/05/31 05:22:56;;;;;;;2.67;1.77;;;22.60;41.00;;;;;;5097556;28;20192;-61
2021/05/31 05:25:23;;;;;;;2.60;1.70;;;22.60;41.00;;;;;;5095252;28;20032;-61
2021/05/31 05:27:49;;;;;;;2.70;1.85;;;22.60;41.00;;;;;;5097117;28;20039;-59
2021/05/31 05:30:18;;;;;;;2.65;1.90;;;22.60;41.00;;;;;;5096648;28;20028;-61
2021/05/31 05:32:48;;;;;;;2.10;1.50;;;22.60;41.00;;;;;;5096710;28;20035;-61
2021/05/31 05:35:24;;;;;;;3.38;2.00;;;22.60;41.00;;;;;;5096686;28;20035;-61
2021/05/31 05:48:42;;;;;;;1.98;1.70;;;22.60;41.00;;;;;;5095803;28;20032;-61
2021/05/31 05:51:08;;;;;;;3.33;1.98;;;22.70;41.00;;;;;;5096229;28;20088;-61
2021/05/31 05:53:36;;;;;;;3.60;1.90;;;22.60;41.00;;;;;;5097131;28;20024;-60
2021/05/31 05:56:05;;;;;;;2.45;1.90;;;22.70;41.00;;;;;;5095020;28;20115;-61
2021/05/31 05:58:31;;;;;;;2.58;1.75;;;22.70;41.10;;;;;;5095394;28;20470;-61
2021/05/31 06:00:58;;;;;;;3.10;1.88;;;22.70;41.10;;;;;;5095730;28;20040;-61
2021/05/31 06:03:25;;;;;;;2.28;1.67;;;22.70;41.10;;;;;;5095999;28;20095;-61
2021/05/31 06:05:55;;;;;;;2.25;1.80;;;22.70;41.10;;;;;;5094733;28;20028;-61
2021/05/31 06:08:21;;;;;;;2.40;1.90;;;22.70;41.10;;;;;;5094125;28;20063;-62
2021/05/31 06:10:47;;;;;;;2.63;1.85;;;22.70;41.10;;;;;;5095222;28;20032;-62
2021/05/31 06:13:13;;;;;;;2.65;1.98;;;22.70;41.10;;;;;;5096369;28;20078;-60
2021/05/31 06:15:39;;;;;;;2.55;1.95;;;22.70;41.20;;;;;;5093747;28;20047;-60
2021/05/31 06:18:05;;;;;;;3.53;1.88;;;22.70;41.20;;;;;;5095776;28;20032;-60
2021/05/31 06:20:32;;;;;;;2.67;1.95;;;22.70;41.20;;;;;;5094511;28;20048;-60
2021/05/31 06:22:58;;;;;;;2.60;1.85;;;22.70;41.20;;;;;;5095330;28;20031;-61
2021/05/31 06:25:25;;;;;;;2.45;1.90;;;22.70;41.20;;;;;;5095891;28;20032;-60
2021/05/31 06:27:52;;;;;;;2.60;1.83;;;22.80;41.30;;;;;;5094228;28;20031;-62
2021/05/31 06:30:18;;;;;;;2.10;1.70;;;22.70;41.30;;;;;;5095711;28;20312;-60
2021/05/31 06:32:44;;;;;;;5.85;2.20;;;22.70;41.30;;;;;;5094522;28;20039;-60
2021/05/31 06:35:10;;;;;;;1.88;1.60;;;22.80;41.30;;;;;;5094760;28;20032;-61
2021/05/31 06:37:39;;;;;;;3.67;1.80;;;22.80;41.30;;;;;;5094701;28;20028;-58
2021/05/31 06:40:15;;;;;;;2.60;1.80;;;22.80;41.30;;;;;;5095173;28;20035;-61
2021/05/31 06:42:42;;;;;;;3.30;2.00;;;22.80;41.30;;;;;;5094214;28;20032;-61
2021/05/31 06:45:11;;;;;;;3.05;1.77;;;22.80;41.40;;;;;;5093410;28;20073;-59
2021/05/31 06:47:37;;;;;;;2.95;2.00;;;22.80;41.40;;;;;;5092792;28;20158;-61
2021/05/31 06:50:07;;;;;;;3.08;2.03;;;22.80;41.60;;;;;;5094477;28;20087;-62
2021/05/31 06:52:33;;;;;;;2.13;1.60;;;22.90;41.70;;;;;;5092784;28;20043;-58
2021/05/31 06:55:00;;;;;;;2.28;1.65;;;22.90;42.30;;;;;;5093175;28;20039;-59
2021/05/31 06:57:26;;;;;;;3.25;1.77;;;23.00;41.80;;;;;;5091706;28;20060;-59
2021/05/31 06:59:51;;;;;;;3.35;1.80;;;23.00;41.60;;;;;;5091671;28;20085;-60
2021/05/31 07:02:17;;;;;;;2.10;1.50;;;23.00;41.50;;;;;;5092034;28;20036;-58
2021/05/31 07:04:43;;;;;;;1.67;1.52;;;23.00;41.40;;;;;;5090509;28;20059;-62
2021/05/31 07:07:09;;;;;;;2.00;1.60;;;23.00;41.30;;;;;;5092750;28;20071;-60
2021/05/31 07:09:35;;;;;;;2.25;1.58;;;23.10;41.30;;;;;;5091096;28;20024;-59
2021/05/31 07:12:01;;;;;;;3.35;1.65;;;23.10;41.20;;;;;;5092031;28;20464;-58
2021/05/31 07:14:34;;;;;;;2.85;1.73;;;23.20;41.20;;;;;;5093302;28;20036;-61
2021/05/31 07:17:01;;;;;;;1.65;1.50;;;23.20;41.20;;;;;;5087476;28;20347;-62
2021/05/31 07:19:28;;;;;;;2.88;1.80;;;23.20;41.20;;;;;;5089313;28;20526;-61
2021/05/31 07:21:54;;;;;;;1.85;1.50;;;23.20;41.20;;;;;;5087862;28;20066;-61
2021/05/31 07:24:20;;;;;;;2.08;1.63;;;23.20;41.10;;;;;;5081225;28;20367;-61
2021/05/31 07:26:46;;;;;;;2.78;1.48;;;23.30;41.20;;;;;;5084894;28;20031;-59
2021/05/31 07:29:12;;;;;;;1.80;1.50;;;23.30;41.20;;;;;;5087810;28;20044;-60
2021/05/31 07:31:38;;;;;;;3.55;2.00;;;23.30;41.20;;;;;;5081470;28;20016;-60
2021/05/31 07:34:04;;;;;;;2.70;1.90;;;23.30;41.10;;;;;;5086931;28;20028;-58
2021/05/31 07:36:30;;;;;;;2.03;1.48;;;23.40;41.20;;;;;;5086391;28;20036;-61
2021/05/31 07:38:56;;;;;;;2.25;1.73;;;23.40;41.20;;;;;;5088325;28;20040;-60
2021/05/31 07:41:23;;;;;;;2.05;1.58;;;23.40;41.20;;;;;;5087775;28;20028;-62
2021/05/31 07:43:49;;;;;;;2.83;1.88;;;23.40;41.20;;;;;;5084687;28;20085;-61
2021/05/31 07:46:15;;;;;;;2.47;1.65;;;23.50;41.20;;;;;;5084774;28;20032;-57
2021/05/31 07:48:42;;;;;;;3.33;1.98;;;23.50;41.20;;;;;;5086211;28;20108;-60
2021/05/31 07:51:18;;;;;;;2.38;1.80;;;23.50;41.30;;;;;;5087503;28;20032;-60
2021/05/31 07:53:48;;;;;;;3.00;1.90;;;23.50;41.30;;;;;;5084795;28;20062;-62
2021/05/31 07:56:14;;;;;;;1.80;1.70;;;23.60;41.30;;;;;;5085241;28;20636;-62
2021/05/31 07:58:42;;;;;;;2.90;1.98;;;23.60;41.30;;;;;;5082156;28;20104;-64
2021/05/31 08:01:07;;;;;;;2.75;1.55;;;23.60;41.30;;;;;;5085918;28;20027;-60
2021/05/31 08:03:33;;;;;;;2.30;1.90;;;23.60;41.30;;;;;;5090504;28;20036;-62
2021/05/31 08:06:00;;;;;;;2.90;1.98;;;23.70;41.40;;;;;;5089825;28;20038;-62
2021/05/31 08:08:27;;;;;;;2.25;1.98;;;23.60;41.40;;;;;;5087075;28;20085;-60
2021/05/31 08:10:54;;;;;;;3.45;1.88;;;23.70;41.50;;;;;;5080891;28;20504;-61
2021/05/31 08:13:22;;;;;;;2.17;1.70;;;23.70;41.50;;;;;;5079409;28;20028;-64
2021/05/31 08:15:51;;;;;;;3.42;1.70;;;23.70;41.50;;;;;;5075193;28;20112;-60
2021/05/31 08:18:17;;;;;;;2.50;1.90;;;23.70;41.60;;;;;;5077710;28;20036;-63
2021/05/31 08:20:44;;;;;;;3.22;2.13;;;23.80;41.70;;;;;;5079203;28;20128;-61
2021/05/31 08:23:10;;;;;;;1.88;1.58;;;23.80;41.80;;;;;;5082124;28;20028;-61
2021/05/31 08:25:36;;;;;;;3.30;1.90;;;23.80;41.80;;;;;;5080140;28;20032;-61
2021/05/31 08:28:04;;;;;;;2.35;1.90;;;23.80;41.80;;;;;;5080483;28;20039;-63
2021/05/31 08:30:31;;;;;;;3.25;2.05;;;23.80;41.90;;;;;;5080715;28;20047;-61
2021/05/31 08:33:02;;;;;;;2.15;1.58;;;23.90;42.00;;;;;;5081369;28;20438;-62
2021/05/31 08:35:28;;;;;;;4.40;2.20;;;23.80;41.90;;;;;;5069413;28;20078;-63
2021/05/31 08:37:54;;;;;;;2.58;1.90;;;23.90;42.00;;;;;;5082929;28;20031;-60
2021/05/31 08:40:20;;;;;;;4.30;1.90;;;23.90;42.00;;;;;;5088594;28;20040;-60
2021/05/31 08:42:47;;;;;;;2.60;1.80;;;23.90;42.00;;;;;;5090051;28;20032;-58
2021/05/31 08:45:16;;;;;;;2.58;1.85;;;23.90;42.00;;;;;;5089494;28;20120;-63
2021/05/31 08:47:45;;;;;;;2.47;1.75;;;23.90;42.00;;;;;;5081071;28;20028;-65
2021/05/31 08:50:14;;;;;;;2.53;1.88;;;23.90;41.90;;;;;;5096288;28;20060;-62
2021/05/31 08:52:41;;;;;;;4.03;1.77;;;23.90;41.90;;;;;;5080456;28;20095;-63
2021/05/31 08:55:10;;;;;;;2.28;1.85;;;23.90;41.80;;;;;;5078292;28;20091;-63
2021/05/31 08:57:37;;;;;;;2.20;1.52;;;23.90;41.80;;;;;;5080178;28;20554;-62
2021/05/31 09:00:08;;;;;;;2.97;2.08;;;23.90;41.80;;;;;;5079921;28;20048;-63
2021/05/31 09:02:39;;;;;;;2.53;1.67;;;24.00;41.80;;;;;;5079242;28;20048;-59
2021/05/31 09:05:07;;;;;;;2.45;1.55;;;24.00;41.70;;;;;;5079492;28;20081;-61
2021/05/31 09:07:33;;;;;;;2.47;1.63;;;24.00;41.70;;;;;;5079472;28;20073;-62
2021/05/31 09:09:58;;;;;;;3.40;1.90;;;24.00;41.60;;;;;;5079530;28;20036;-60
2021/05/31 09:12:30;;;;;;;2.60;1.70;;;24.00;41.60;;;;;;5078630;28;20058;-62
2021/05/31 09:15:03;;;;;;;2.35;1.95;;;24.00;41.60;;;;;;5083026;28;20033;-60
2021/05/31 09:17:32;;;;;;;2.63;1.70;;;24.00;41.60;;;;;;5080294;28;20413;-61
2021/05/31 09:19:59;;;;;;;1.60;1.50;;;24.00;41.60;;;;;;5083690;28;20638;-61
2021/05/31 09:22:26;;;;;;;3.13;1.85;;;24.10;41.60;;;;;;5068036;28;20028;-63
2021/05/31 09:25:04;;;;;;;1.83;1.60;;;24.10;41.50;;;;;;5084998;28;20032;-62
2021/05/31 09:27:31;;;;;;;2.63;1.90;;;24.10;41.50;;;;;;5082855;28;20028;-60
2021/05/31 09:30:06;;;;;;;2.70;1.90;;;24.10;41.40;;;;;;5085585;28;20039;-60
2021/05/31 09:32:33;;;;;;;2.50;1.73;;;24.10;41.30;;;;;;5085815;28;20019;-64
2021/05/31 09:35:07;;;;;;;1.98;1.70;;;24.10;41.30;;;;;;5086049;28;20024;-64
2021/05/31 09:37:33;;;;;;;3.00;2.00;;;24.10;41.20;;;;;;5088365;28;20043;-62
2021/05/31 09:40:07;;;;;;;2.10;1.60;;;24.10;41.20;;;;;;5085184;28;20515;-62
2021/05/31 09:42:33;;;;;;;2.42;1.88;;;24.10;41.10;;;;;;5086246;28;20160;-61
2021/05/31 09:45:09;;;;;;;2.60;2.05;;;24.10;41.10;;;;;;5088638;28;20503;-63
2021/05/31 09:47:37;;;;;;;3.55;1.67;;;24.20;41.00;;;;;;5092167;28;20036;-62
2021/05/31 09:50:05;;;;;;;3.05;2.20;;;24.20;41.00;;;;;;5094003;28;20016;-63
2021/05/31 09:52:31;;;;;;;2.10;1.75;;;24.20;41.00;;;;;;5075812;28;20036;-61
2021/05/31 09:54:57;;;;;;;2.25;1.77;;;24.20;41.00;;;;;;5089120;28;20411;-64
2021/05/31 09:57:24;;;;;;;2.13;1.58;;;24.20;40.90;;;;;;5089503;28;20024;-59
2021/05/31 09:59:56;;;;;;;2.00;1.80;;;24.20;40.80;;;;;;5086432;28;20069;-62
2021/05/31 10:05:11;;;;;;;2.05;1.80;;;24.30;40.60;;;;;;5081775;28;20360;-62
2021/05/31 10:07:43;;;;;;;2.08;1.88;;;24.30;40.50;;;;;;5083169;28;20024;-61
2021/05/31 10:10:09;;;;;;;3.17;1.88;;;24.20;40.40;;;;;;5083055;28;20125;-60
2021/05/31 10:12:37;;;;;;;2.75;2.05;;;24.30;40.40;;;;;;5083302;28;20028;-61
2021/05/31 10:15:08;;;;;;;3.25;2.35;;;24.30;40.30;;;;;;5082043;28;20041;-61
2021/05/31 10:17:34;;;;;;;2.85;2.22;;;24.30;40.30;;;;;;5085764;28;20452;-64
2021/05/31 10:20:02;;;;;;;2.97;2.45;;;24.30;40.20;;;;;;5087686;28;20063;-63
2021/05/31 10:22:32;;;;;;;3.00;2.53;;;24.30;40.10;;;;;;5086654;28;20435;-60
2021/05/31 10:25:01;;;;;;;3.35;2.83;;;24.30;40.00;;;;;;5086017;28;20093;-61
2021/05/31 10:27:29;;;;;;;3.78;3.08;;;24.30;40.00;;;;;;5085173;28;20122;-61
2021/05/31 10:29:57;;;;;;;3.80;3.00;;;24.40;40.10;;;;;;5084501;28;20522;-63
2021/05/31 10:32:23;;;;;;;4.07;3.50;;;24.40;40.00;;;;;;5083830;28;20032;-61
2021/05/31 10:34:52;;;;;;;5.00;3.50;;;24.40;40.00;;;;;;5085508;28;20094;-61
2021/05/31 10:37:27;;;;;;;4.90;3.50;;;24.40;39.90;;;;;;5086729;28;20427;-63
2021/05/31 10:40:12;;;;;;;4.32;3.80;;;24.40;39.90;;;;;;5087146;28;20032;-63
2021/05/31 10:42:39;;;;;;;5.05;3.80;;;24.40;39.80;;;;;;5083647;28;20119;-61
2021/05/31 10:45:36;;;;;;;4.13;3.35;;;24.40;39.90;;;;;;5083742;28;20020;-59
2021/05/31 10:48:12;;;;;;;3.60;2.90;;;24.50;40.00;;;;;;5072627;28;20058;-63
2021/05/31 10:50:43;;;;;;;4.78;3.35;;;24.50;40.00;;;;;;5087055;28;20032;-61
2021/05/31 10:56:12;;;;;;;4.30;3.38;;;24.60;40.20;;;;;;5088486;28;20085;-59
2021/05/31 10:58:40;;;;;;;3.17;2.88;;;24.60;40.10;;;;;;5085547;28;20056;-62
2021/05/31 11:01:11;;;;;;;3.75;3.38;;;24.60;40.10;;;;;;5086196;28;20354;-58
2021/05/31 11:03:51;;;;;;;3.85;3.33;;;24.70;40.10;;;;;;5085987;28;20027;-61
2021/05/31 11:06:20;;;;;;;3.78;3.47;;;24.70;39.90;;;;;;5082840;28;20032;-63
2021/05/31 11:08:51;;;;;;;4.80;3.75;;;24.70;39.90;;;;;;5085247;28;20106;-62
2021/05/31 11:11:34;;;;;;;4.15;3.42;;;24.70;39.80;;;;;;5085235;28;20032;-62
2021/05/31 11:14:01;;;;;;;4.35;3.58;;;24.80;39.70;;;;;;5084627;28;20061;-63
2021/05/31 11:16:28;;;;;;;5.50;3.92;;;24.80;39.70;;;;;;5086732;28;20498;-60
2021/05/31 11:19:06;;;;;;;4.70;3.53;;;24.80;39.60;;;;;;5086497;28;20036;-63
2021/05/31 11:21:44;;;;;;;4.03;3.63;;;24.90;39.50;;;;;;5088562;28;20032;-62
2021/05/31 11:24:15;;;;;;;5.00;4.18;;;24.90;39.40;;;;;;5084127;28;20035;-56
2021/05/31 11:26:43;;;;;;;4.82;4.28;;;24.90;39.30;;;;;;5088134;28;20016;-58
2021/05/31 11:29:11;;;;;;;4.30;3.90;;;25.00;39.30;;;;;;5084375;28;20043;-64
2021/05/31 11:31:42;;;;;;;5.40;4.43;;;25.00;39.30;;;;;;5085547;28;20024;-64
2021/05/31 11:34:08;;;;;;;5.22;4.13;;;25.00;39.20;;;;;;5086645;28;20485;-65
2021/05/31 11:36:37;;;;;;;5.22;3.90;;;25.00;39.10;;;;;;5087690;28;20537;-54
2021/05/31 11:39:09;;;;;;;4.22;3.83;;;25.10;39.00;;;;;;5085065;28;20038;-62
2021/05/31 11:41:51;;;;;;;4.63;4.13;;;25.10;38.90;;;;;;5087956;28;20028;-61
2021/05/31 11:44:20;;;;;;;4.85;4.25;;;25.10;38.80;;;;;;5087374;28;20040;-64
2021/05/31 11:46:59;;;;;;;5.82;5.30;;;25.10;39.50;;;;;;5087345;28;20031;-61
2021/05/31 11:49:26;;;;;;;5.32;4.60;;;25.10;38.80;;;;;;5087750;28;20081;-63
2021/05/31 11:51:59;;;;;;;5.38;4.88;;;25.10;38.70;;;;;;5088146;28;20381;-63
2021/05/31 11:54:27;;;;;;;5.25;4.70;;;25.10;39.20;;;;;;5087089;28;20038;-62
2021/05/31 11:56:57;;;;;;;6.13;5.43;;;25.10;38.50;;;;;;5093040;28;20028;-62
2021/05/31 11:59:23;;;;;;;5.90;4.97;;;25.10;38.50;;;;;;5088234;28;20143;-60
2021/05/31 12:01:54;;;;;;;5.65;4.70;;;25.20;38.50;;;;;;5088455;28;20382;-62
2021/05/31 12:04:23;;;;;;;4.72;4.32;;;25.20;38.40;;;;;;5089205;28;20038;-63
2021/05/31 12:07:03;;;;;;;5.75;5.15;;;25.20;38.40;;;;;;5090387;28;20020;-63
2021/05/31 12:09:29;;;;;;;5.13;4.63;;;25.30;38.40;;;;;;5088069;28;20028;-62
2021/05/31 12:11:57;;;;;;;5.13;4.30;;;25.30;38.40;;;;;;5087051;28;20042;-62
2021/05/31 12:14:25;;;;;;;6.55;5.25;;;25.30;38.30;;;;;;5089974;28;20024;-62
2021/05/31 12:16:53;;;;;;;5.10;4.60;;;25.20;38.20;;;;;;5092243;28;20039;-62
2021/05/31 12:19:22;;;;;;;5.15;4.72;;;25.30;38.10;;;;;;5088322;28;20028;-64
2021/05/31 12:21:48;;;;;;;5.30;4.72;;;25.30;38.10;;;;;;5091277;28;20077;-63
2021/05/31 12:24:14;;;;;;;5.45;4.95;;;25.30;38.10;;;;;;5089977;28;20063;-62
2021/05/31 12:26:40;;;;;;;5.55;5.00;;;25.30;38.10;;;;;;5084387;28;20099;-63
2021/05/31 12:29:12;;;;;;;6.20;5.47;;;25.30;38.10;;;;;;5090041;28;20134;-61
2021/05/31 12:31:38;;;;;;;5.57;5.05;;;25.30;38.10;;;;;;5088636;28;20145;-63
2021/05/31 12:34:04;;;;;;;6.80;5.20;;;25.30;38.10;;;;;;5083239;28;20047;-62
2021/05/31 12:36:31;;;;;;;5.68;5.07;;;25.30;38.00;;;;;;5087507;28;20033;-62
2021/05/31 12:38:57;;;;;;;5.90;5.30;;;25.30;38.00;;;;;;5087132;28;20024;-63
2021/05/31 12:41:24;;;;;;;5.90;5.30;;;25.30;38.00;;;;;;5087411;28;20467;-64
2021/05/31 12:43:50;;;;;;;5.32;4.63;;;25.30;37.90;;;;;;5089093;28;20100;-65
2021/05/31 12:46:18;;;;;;;6.68;5.65;;;25.40;37.90;;;;;;5084991;28;20107;-63
2021/05/31 12:48:48;;;;;;;6.20;5.60;;;25.30;37.80;;;;;;5089418;28;20173;-62
2021/05/31 12:51:14;;;;;;;5.93;5.28;;;25.40;37.70;;;;;;5089209;28;20030;-62
2021/05/31 12:53:42;;;;;;;5.63;5.05;;;25.30;37.60;;;;;;5090369;28;20400;-59
2021/05/31 12:56:08;;;;;;;5.75;5.15;;;25.30;37.50;;;;;;5090815;28;20039;-63
2021/05/31 12:58:34;;;;;;;5.38;4.88;;;25.40;37.60;;;;;;5090385;28;20375;-62
2021/05/31 13:01:00;;;;;;;4.55;4.15;;;25.40;37.60;;;;;;5091695;28;20020;-61
2021/05/31 13:03:33;;;;;;;5.22;4.63;;;25.40;37.60;;;;;;5086153;28;20085;-59
2021/05/31 13:06:00;;;;;;;5.00;4.50;;;25.40;37.50;;;;;;5096005;28;20161;-64
2021/05/31 13:08:38;;;;;;;4.00;3.60;;;25.40;37.60;;;;;;5090623;28;20035;-62
2021/05/31 13:11:05;;;;;;;4.60;3.85;;;25.50;37.70;;;;;;5088206;28;20177;-61
2021/05/31 13:13:36;;;;;;;5.03;4.15;;;25.50;37.70;;;;;;5085255;28;20397;-62
2021/05/31 13:16:09;;;;;;;5.47;3.30;;;25.50;37.70;;;;;;5085842;28;20032;-64